sensor_id;sensor_type;location;lat;lon;timestamp;P1;durP1;ratioP1;P2;durP2;ratioP2
7128;SDS011;3606;52.930;8.644;2024-03-06T00:01:32;9.83;;;6.40;;
7128;SDS011;3606;52.930;8.644;2024-03-06T00:03:59;9.40;;;6.67;;
7128;SDS011;3606;52.930;8.644;2024-03-06T00:06:24;10.77;;;6.83;;
7128;SDS011;3606;52.930;8.644;2024-03-06T00:08:50;16.10;;;6.47;;
7128;SDS011;3606;52.930;8.644;2024-03-06T00:11:16;12.67;;;6.77;;
7128;SDS011;3606;52.930;8.644;2024-03-06T00:13:42;9.77;;;6.10;;
7128;SDS011;3606;52.930;8.644;2024-03-06T00:16:08;10.43;;;6.73;;
7128;SDS011;3606;52.930;8.644;2024-03-06T00:18:34;10.13;;;6.40;;
7128;SDS011;3606;52.930;8.644;2024-03-06T00:20:59;10.23;;;7.07;;
7128;SDS011;3606;52.930;8.644;2024-03-06T00:23:25;9.50;;;6.00;;
7128;SDS011;3606;52.930;8.644;2024-03-06T00:25:51;12.43;;;6.77;;
7128;SDS011;3606;52.930;8.644;2024-03-06T00:28:16;13.37;;;6.77;;
7128;SDS011;3606;52.930;8.644;2024-03-06T00:30:42;15.00;;;7.07;;
7128;SDS011;3606;52.930;8.644;2024-03-06T00:33:08;10.60;;;6.47;;
7128;SDS011;3606;52.930;8.644;2024-03-06T00:35:33;11.87;;;7.17;;
7128;SDS011;3606;52.930;8.644;2024-03-06T00:37:59;9.57;;;6.47;;
7128;SDS011;3606;52.930;8.644;2024-03-06T00:40:27;9.17;;;6.73;;
7128;SDS011;3606;52.930;8.644;2024-03-06T00:42:56;14.33;;;7.53;;
7128;SDS011;3606;52.930;8.644;2024-03-06T00:45:22;11.53;;;7.17;;
7128;SDS011;3606;52.930;8.644;2024-03-06T00:47:47;9.33;;;6.47;;
7128;SDS011;3606;52.930;8.644;2024-03-06T00:50:13;11.70;;;6.67;;
7128;SDS011;3606;52.930;8.644;2024-03-06T00:52:41;11.20;;;7.20;;
7128;SDS011;3606;52.930;8.644;2024-03-06T00:55:07;10.67;;;6.70;;
7128;SDS011;3606;52.930;8.644;2024-03-06T00:57:33;9.40;;;6.30;;
7128;SDS011;3606;52.930;8.644;2024-03-06T00:59:59;10.97;;;7.53;;
7128;SDS011;3606;52.930;8.644;2024-03-06T01:02:25;9.90;;;6.80;;
7128;SDS011;3606;52.930;8.644;2024-03-06T01:04:50;10.53;;;6.90;;
7128;SDS011;3606;52.930;8.644;2024-03-06T01:07:16;10.23;;;7.33;;
7128;SDS011;3606;52.930;8.644;2024-03-06T01:09:42;11.00;;;7.47;;
7128;SDS011;3606;52.930;8.644;2024-03-06T01:12:07;11.77;;;7.83;;
7128;SDS011;3606;52.930;8.644;2024-03-06T01:14:33;10.63;;;7.80;;
7128;SDS011;3606;52.930;8.644;2024-03-06T01:16:59;10.80;;;7.40;;
7128;SDS011;3606;52.930;8.644;2024-03-06T01:19:24;11.87;;;7.20;;
7128;SDS011;3606;52.930;8.644;2024-03-06T01:21:51;10.37;;;7.43;;
7128;SDS011;3606;52.930;8.644;2024-03-06T01:24:17;10.37;;;7.43;;
7128;SDS011;3606;52.930;8.644;2024-03-06T01:26:42;12.13;;;7.37;;
7128;SDS011;3606;52.930;8.644;2024-03-06T01:29:08;13.33;;;7.63;;
7128;SDS011;3606;52.930;8.644;2024-03-06T01:31:34;11.47;;;7.00;;
7128;SDS011;3606;52.930;8.644;2024-03-06T01:33:59;11.13;;;7.93;;
7128;SDS011;3606;52.930;8.644;2024-03-06T01:36:25;11.03;;;6.80;;
7128;SDS011;3606;52.930;8.644;2024-03-06T01:38:50;12.97;;;7.50;;
7128;SDS011;3606;52.930;8.644;2024-03-06T01:41:16;11.50;;;6.90;;
7128;SDS011;3606;52.930;8.644;2024-03-06T01:43:42;11.30;;;8.07;;
7128;SDS011;3606;52.930;8.644;2024-03-06T01:46:09;15.20;;;8.00;;
7128;SDS011;3606;52.930;8.644;2024-03-06T01:48:34;10.03;;;7.00;;
7128;SDS011;3606;52.930;8.644;2024-03-06T01:51:01;11.00;;;7.17;;
7128;SDS011;3606;52.930;8.644;2024-03-06T01:53:29;10.17;;;8.17;;
7128;SDS011;3606;52.930;8.644;2024-03-06T01:55:57;11.37;;;7.00;;
7128;SDS011;3606;52.930;8.644;2024-03-06T01:58:23;11.57;;;7.77;;
7128;SDS011;3606;52.930;8.644;2024-03-06T02:00:49;9.63;;;7.03;;
7128;SDS011;3606;52.930;8.644;2024-03-06T02:03:16;12.00;;;7.90;;
7128;SDS011;3606;52.930;8.644;2024-03-06T02:05:42;9.67;;;6.97;;
7128;SDS011;3606;52.930;8.644;2024-03-06T02:08:08;10.33;;;7.53;;
7128;SDS011;3606;52.930;8.644;2024-03-06T02:10:34;13.17;;;7.33;;
7128;SDS011;3606;52.930;8.644;2024-03-06T02:13:00;18.67;;;8.03;;
7128;SDS011;3606;52.930;8.644;2024-03-06T02:15:25;11.63;;;7.80;;
7128;SDS011;3606;52.930;8.644;2024-03-06T02:17:51;13.40;;;7.63;;
7128;SDS011;3606;52.930;8.644;2024-03-06T02:20:24;12.77;;;7.80;;
7128;SDS011;3606;52.930;8.644;2024-03-06T02:22:50;14.67;;;7.63;;
7128;SDS011;3606;52.930;8.644;2024-03-06T02:25:16;10.07;;;7.13;;
7128;SDS011;3606;52.930;8.644;2024-03-06T02:27:44;13.13;;;7.43;;
7128;SDS011;3606;52.930;8.644;2024-03-06T02:30:09;14.13;;;8.10;;
7128;SDS011;3606;52.930;8.644;2024-03-06T02:32:35;11.47;;;7.13;;
7128;SDS011;3606;52.930;8.644;2024-03-06T02:35:01;12.97;;;8.80;;
7128;SDS011;3606;52.930;8.644;2024-03-06T02:37:28;9.77;;;7.20;;
7128;SDS011;3606;52.930;8.644;2024-03-06T02:39:54;14.67;;;8.17;;
7128;SDS011;3606;52.930;8.644;2024-03-06T02:42:19;14.07;;;8.00;;
7128;SDS011;3606;52.930;8.644;2024-03-06T02:44:45;13.57;;;8.10;;
7128;SDS011;3606;52.930;8.644;2024-03-06T02:47:11;14.33;;;7.73;;
7128;SDS011;3606;52.930;8.644;2024-03-06T02:49:36;16.70;;;8.07;;
7128;SDS011;3606;52.930;8.644;2024-03-06T02:52:02;14.47;;;8.50;;
7128;SDS011;3606;52.930;8.644;2024-03-06T02:54:28;11.23;;;7.73;;
7128;SDS011;3606;52.930;8.644;2024-03-06T02:56:54;13.27;;;8.47;;
7128;SDS011;3606;52.930;8.644;2024-03-06T02:59:19;11.50;;;8.87;;
7128;SDS011;3606;52.930;8.644;2024-03-06T03:01:45;13.37;;;7.83;;
7128;SDS011;3606;52.930;8.644;2024-03-06T03:04:11;15.50;;;8.47;;
7128;SDS011;3606;52.930;8.644;2024-03-06T03:06:36;12.37;;;8.30;;
7128;SDS011;3606;52.930;8.644;2024-03-06T03:09:02;13.10;;;8.50;;
7128;SDS011;3606;52.930;8.644;2024-03-06T03:11:30;13.23;;;8.27;;
7128;SDS011;3606;52.930;8.644;2024-03-06T03:13:57;12.77;;;8.50;;
7128;SDS011;3606;52.930;8.644;2024-03-06T03:16:22;11.17;;;8.07;;
7128;SDS011;3606;52.930;8.644;2024-03-06T03:18:48;13.87;;;8.77;;
7128;SDS011;3606;52.930;8.644;2024-03-06T03:21:14;15.67;;;8.43;;
7128;SDS011;3606;52.930;8.644;2024-03-06T03:23:40;13.47;;;8.57;;
7128;SDS011;3606;52.930;8.644;2024-03-06T03:26:06;14.10;;;8.33;;
7128;SDS011;3606;52.930;8.644;2024-03-06T03:28:32;13.70;;;9.30;;
7128;SDS011;3606;52.930;8.644;2024-03-06T03:30:58;14.73;;;8.23;;
7128;SDS011;3606;52.930;8.644;2024-03-06T03:33:24;13.50;;;9.20;;
7128;SDS011;3606;52.930;8.644;2024-03-06T03:35:49;10.50;;;8.10;;
7128;SDS011;3606;52.930;8.644;2024-03-06T03:38:16;13.13;;;8.90;;
7128;SDS011;3606;52.930;8.644;2024-03-06T03:40:42;13.67;;;9.33;;
7128;SDS011;3606;52.930;8.644;2024-03-06T03:43:07;15.03;;;9.50;;
7128;SDS011;3606;52.930;8.644;2024-03-06T03:45:33;16.03;;;9.47;;
7128;SDS011;3606;52.930;8.644;2024-03-06T03:48:01;13.33;;;8.77;;
7128;SDS011;3606;52.930;8.644;2024-03-06T03:50:29;11.63;;;8.80;;
7128;SDS011;3606;52.930;8.644;2024-03-06T03:52:55;14.63;;;9.43;;
7128;SDS011;3606;52.930;8.644;2024-03-06T03:55:23;18.87;;;9.70;;
7128;SDS011;3606;52.930;8.644;2024-03-06T03:57:50;12.83;;;8.87;;
7128;SDS011;3606;52.930;8.644;2024-03-06T04:00:16;16.67;;;10.17;;
7128;SDS011;3606;52.930;8.644;2024-03-06T04:02:41;16.13;;;9.83;;
7128;SDS011;3606;52.930;8.644;2024-03-06T04:05:07;14.57;;;9.33;;
7128;SDS011;3606;52.930;8.644;2024-03-06T04:07:34;14.50;;;9.30;;
7128;SDS011;3606;52.930;8.644;2024-03-06T04:10:01;16.70;;;9.60;;
7128;SDS011;3606;52.930;8.644;2024-03-06T04:12:27;20.33;;;10.10;;
7128;SDS011;3606;52.930;8.644;2024-03-06T04:14:52;16.70;;;10.47;;
7128;SDS011;3606;52.930;8.644;2024-03-06T04:17:18;14.10;;;9.17;;
7128;SDS011;3606;52.930;8.644;2024-03-06T04:19:44;13.77;;;9.67;;
7128;SDS011;3606;52.930;8.644;2024-03-06T04:22:10;14.07;;;9.50;;
7128;SDS011;3606;52.930;8.644;2024-03-06T04:24:35;15.83;;;9.57;;
7128;SDS011;3606;52.930;8.644;2024-03-06T04:27:01;15.67;;;9.53;;
7128;SDS011;3606;52.930;8.644;2024-03-06T04:29:26;18.63;;;9.93;;
7128;SDS011;3606;52.930;8.644;2024-03-06T04:31:52;11.90;;;9.27;;
7128;SDS011;3606;52.930;8.644;2024-03-06T04:34:18;13.33;;;9.50;;
7128;SDS011;3606;52.930;8.644;2024-03-06T04:36:44;14.30;;;9.60;;
7128;SDS011;3606;52.930;8.644;2024-03-06T04:39:10;16.83;;;9.93;;
7128;SDS011;3606;52.930;8.644;2024-03-06T04:41:37;18.13;;;9.87;;
7128;SDS011;3606;52.930;8.644;2024-03-06T04:44:02;14.43;;;9.57;;
7128;SDS011;3606;52.930;8.644;2024-03-06T04:46:28;15.53;;;9.77;;
7128;SDS011;3606;52.930;8.644;2024-03-06T04:48:54;14.20;;;10.00;;
7128;SDS011;3606;52.930;8.644;2024-03-06T04:51:19;16.53;;;10.57;;
7128;SDS011;3606;52.930;8.644;2024-03-06T04:53:45;12.63;;;9.43;;
7128;SDS011;3606;52.930;8.644;2024-03-06T04:56:11;17.33;;;10.47;;
7128;SDS011;3606;52.930;8.644;2024-03-06T04:58:37;17.07;;;10.40;;
7128;SDS011;3606;52.930;8.644;2024-03-06T05:01:03;18.77;;;9.93;;
7128;SDS011;3606;52.930;8.644;2024-03-06T05:03:29;14.67;;;10.27;;
7128;SDS011;3606;52.930;8.644;2024-03-06T05:05:55;17.03;;;10.93;;
7128;SDS011;3606;52.930;8.644;2024-03-06T05:08:21;13.30;;;9.63;;
7128;SDS011;3606;52.930;8.644;2024-03-06T05:10:46;14.37;;;9.17;;
7128;SDS011;3606;52.930;8.644;2024-03-06T05:13:12;16.40;;;9.97;;
7128;SDS011;3606;52.930;8.644;2024-03-06T05:15:37;13.50;;;8.83;;
7128;SDS011;3606;52.930;8.644;2024-03-06T05:18:04;19.10;;;10.03;;
7128;SDS011;3606;52.930;8.644;2024-03-06T05:20:30;16.53;;;9.93;;
7128;SDS011;3606;52.930;8.644;2024-03-06T05:22:56;16.03;;;10.07;;
7128;SDS011;3606;52.930;8.644;2024-03-06T05:25:22;19.17;;;10.53;;
7128;SDS011;3606;52.930;8.644;2024-03-06T05:27:48;15.23;;;10.27;;
7128;SDS011;3606;52.930;8.644;2024-03-06T05:30:13;15.67;;;9.90;;
7128;SDS011;3606;52.930;8.644;2024-03-06T05:32:39;12.50;;;9.10;;
7128;SDS011;3606;52.930;8.644;2024-03-06T05:35:06;17.47;;;11.00;;
7128;SDS011;3606;52.930;8.644;2024-03-06T05:37:35;13.37;;;9.43;;
7128;SDS011;3606;52.930;8.644;2024-03-06T05:40:01;13.63;;;9.50;;
7128;SDS011;3606;52.930;8.644;2024-03-06T05:42:29;14.60;;;9.53;;
7128;SDS011;3606;52.930;8.644;2024-03-06T05:44:56;16.37;;;10.63;;
7128;SDS011;3606;52.930;8.644;2024-03-06T05:47:35;16.87;;;10.57;;
7128;SDS011;3606;52.930;8.644;2024-03-06T05:50:01;13.93;;;9.60;;
7128;SDS011;3606;52.930;8.644;2024-03-06T05:52:30;15.63;;;10.00;;
7128;SDS011;3606;52.930;8.644;2024-03-06T05:54:56;17.40;;;10.23;;
7128;SDS011;3606;52.930;8.644;2024-03-06T05:57:22;17.10;;;10.63;;
7128;SDS011;3606;52.930;8.644;2024-03-06T05:59:47;23.77;;;10.03;;
7128;SDS011;3606;52.930;8.644;2024-03-06T06:02:13;14.67;;;9.83;;
7128;SDS011;3606;52.930;8.644;2024-03-06T06:04:41;15.10;;;9.93;;
7128;SDS011;3606;52.930;8.644;2024-03-06T06:07:07;15.57;;;10.20;;
7128;SDS011;3606;52.930;8.644;2024-03-06T06:09:33;16.13;;;10.53;;
7128;SDS011;3606;52.930;8.644;2024-03-06T06:11:58;17.33;;;9.73;;
7128;SDS011;3606;52.930;8.644;2024-03-06T06:14:24;15.77;;;10.27;;
7128;SDS011;3606;52.930;8.644;2024-03-06T06:16:52;12.23;;;9.00;;
7128;SDS011;3606;52.930;8.644;2024-03-06T06:19:17;15.93;;;9.23;;
7128;SDS011;3606;52.930;8.644;2024-03-06T06:21:43;16.43;;;9.60;;
7128;SDS011;3606;52.930;8.644;2024-03-06T06:24:09;15.10;;;9.47;;
7128;SDS011;3606;52.930;8.644;2024-03-06T06:26:35;16.40;;;9.90;;
7128;SDS011;3606;52.930;8.644;2024-03-06T06:29:00;17.07;;;9.50;;
7128;SDS011;3606;52.930;8.644;2024-03-06T06:31:26;14.57;;;9.60;;
7128;SDS011;3606;52.930;8.644;2024-03-06T06:33:52;15.33;;;8.43;;
7128;SDS011;3606;52.930;8.644;2024-03-06T06:36:18;16.57;;;10.10;;
7128;SDS011;3606;52.930;8.644;2024-03-06T06:38:45;16.07;;;9.17;;
7128;SDS011;3606;52.930;8.644;2024-03-06T06:41:11;15.57;;;9.47;;
7128;SDS011;3606;52.930;8.644;2024-03-06T06:43:38;19.00;;;10.03;;
7128;SDS011;3606;52.930;8.644;2024-03-06T06:46:05;15.83;;;10.33;;
7128;SDS011;3606;52.930;8.644;2024-03-06T06:48:31;14.43;;;8.97;;
7128;SDS011;3606;52.930;8.644;2024-03-06T06:50:58;15.20;;;9.50;;
7128;SDS011;3606;52.930;8.644;2024-03-06T06:53:25;16.43;;;9.53;;
7128;SDS011;3606;52.930;8.644;2024-03-06T06:55:51;13.97;;;9.23;;
7128;SDS011;3606;52.930;8.644;2024-03-06T06:58:17;15.23;;;8.97;;
7128;SDS011;3606;52.930;8.644;2024-03-06T07:00:43;15.17;;;9.50;;
7128;SDS011;3606;52.930;8.644;2024-03-06T07:03:08;17.20;;;9.27;;
7128;SDS011;3606;52.930;8.644;2024-03-06T07:05:34;16.47;;;9.83;;
7128;SDS011;3606;52.930;8.644;2024-03-06T07:07:59;17.17;;;9.57;;
7128;SDS011;3606;52.930;8.644;2024-03-06T07:10:25;12.43;;;8.47;;
7128;SDS011;3606;52.930;8.644;2024-03-06T07:12:51;20.10;;;10.33;;
7128;SDS011;3606;52.930;8.644;2024-03-06T07:15:17;15.50;;;8.90;;
7128;SDS011;3606;52.930;8.644;2024-03-06T07:17:42;15.63;;;9.17;;
7128;SDS011;3606;52.930;8.644;2024-03-06T07:20:08;14.37;;;8.60;;
7128;SDS011;3606;52.930;8.644;2024-03-06T07:22:35;14.70;;;9.53;;
7128;SDS011;3606;52.930;8.644;2024-03-06T07:25:01;13.33;;;7.90;;
7128;SDS011;3606;52.930;8.644;2024-03-06T07:27:27;14.67;;;9.50;;
7128;SDS011;3606;52.930;8.644;2024-03-06T07:29:53;13.03;;;9.00;;
7128;SDS011;3606;52.930;8.644;2024-03-06T07:32:19;16.57;;;9.50;;
7128;SDS011;3606;52.930;8.644;2024-03-06T07:34:44;14.23;;;9.50;;
7128;SDS011;3606;52.930;8.644;2024-03-06T07:37:10;16.53;;;9.60;;
7128;SDS011;3606;52.930;8.644;2024-03-06T07:39:36;15.80;;;9.07;;
7128;SDS011;3606;52.930;8.644;2024-03-06T07:42:02;15.27;;;8.97;;
7128;SDS011;3606;52.930;8.644;2024-03-06T07:44:27;16.87;;;10.00;;
7128;SDS011;3606;52.930;8.644;2024-03-06T07:46:53;14.80;;;9.37;;
7128;SDS011;3606;52.930;8.644;2024-03-06T07:49:19;15.27;;;9.17;;
7128;SDS011;3606;52.930;8.644;2024-03-06T07:51:46;14.00;;;9.20;;
7128;SDS011;3606;52.930;8.644;2024-03-06T07:54:12;14.20;;;8.90;;
7128;SDS011;3606;52.930;8.644;2024-03-06T07:56:38;15.43;;;9.10;;
7128;SDS011;3606;52.930;8.644;2024-03-06T07:59:04;13.47;;;9.50;;
7128;SDS011;3606;52.930;8.644;2024-03-06T08:01:32;19.13;;;9.17;;
7128;SDS011;3606;52.930;8.644;2024-03-06T08:03:58;14.93;;;8.63;;
7128;SDS011;3606;52.930;8.644;2024-03-06T08:06:23;15.03;;;9.57;;
7128;SDS011;3606;52.930;8.644;2024-03-06T08:08:50;16.50;;;9.57;;
7128;SDS011;3606;52.930;8.644;2024-03-06T08:11:16;11.00;;;8.20;;
7128;SDS011;3606;52.930;8.644;2024-03-06T08:13:43;12.07;;;8.53;;
7128;SDS011;3606;52.930;8.644;2024-03-06T08:16:08;14.93;;;8.63;;
7128;SDS011;3606;52.930;8.644;2024-03-06T08:18:34;17.00;;;9.10;;
7128;SDS011;3606;52.930;8.644;2024-03-06T08:21:01;17.63;;;9.90;;
7128;SDS011;3606;52.930;8.644;2024-03-06T08:23:31;12.07;;;8.70;;
7128;SDS011;3606;52.930;8.644;2024-03-06T08:25:58;12.10;;;9.00;;
7128;SDS011;3606;52.930;8.644;2024-03-06T08:28:25;13.77;;;8.47;;
7128;SDS011;3606;52.930;8.644;2024-03-06T08:30:50;13.80;;;8.90;;
7128;SDS011;3606;52.930;8.644;2024-03-06T08:33:17;15.77;;;9.67;;
7128;SDS011;3606;52.930;8.644;2024-03-06T08:35:43;13.87;;;8.57;;
7128;SDS011;3606;52.930;8.644;2024-03-06T08:38:08;15.03;;;9.57;;
7128;SDS011;3606;52.930;8.644;2024-03-06T08:40:34;14.90;;;9.13;;
7128;SDS011;3606;52.930;8.644;2024-03-06T08:43:00;12.60;;;8.20;;
7128;SDS011;3606;52.930;8.644;2024-03-06T08:45:26;12.97;;;9.17;;
7128;SDS011;3606;52.930;8.644;2024-03-06T08:47:51;11.63;;;8.67;;
7128;SDS011;3606;52.930;8.644;2024-03-06T08:50:19;15.03;;;8.57;;
7128;SDS011;3606;52.930;8.644;2024-03-06T08:52:45;15.27;;;9.43;;
7128;SDS011;3606;52.930;8.644;2024-03-06T08:55:11;12.40;;;8.37;;
7128;SDS011;3606;52.930;8.644;2024-03-06T08:57:37;14.10;;;9.10;;
7128;SDS011;3606;52.930;8.644;2024-03-06T09:00:04;11.00;;;8.03;;
7128;SDS011;3606;52.930;8.644;2024-03-06T09:02:35;11.50;;;8.97;;
7128;SDS011;3606;52.930;8.644;2024-03-06T09:05:03;16.90;;;9.13;;
7128;SDS011;3606;52.930;8.644;2024-03-06T09:07:34;14.43;;;9.03;;
7128;SDS011;3606;52.930;8.644;2024-03-06T09:10:05;17.83;;;9.73;;
7128;SDS011;3606;52.930;8.644;2024-03-06T09:12:32;13.17;;;8.77;;
7128;SDS011;3606;52.930;8.644;2024-03-06T09:14:58;16.10;;;8.77;;
7128;SDS011;3606;52.930;8.644;2024-03-06T09:17:25;17.70;;;8.50;;
7128;SDS011;3606;52.930;8.644;2024-03-06T09:19:51;13.73;;;9.60;;
7128;SDS011;3606;52.930;8.644;2024-03-06T09:22:16;13.70;;;9.37;;
7128;SDS011;3606;52.930;8.644;2024-03-06T09:24:42;12.63;;;9.03;;
7128;SDS011;3606;52.930;8.644;2024-03-06T09:27:08;14.73;;;9.37;;
7128;SDS011;3606;52.930;8.644;2024-03-06T09:29:33;15.03;;;10.07;;
7128;SDS011;3606;52.930;8.644;2024-03-06T09:31:59;15.37;;;9.47;;
7128;SDS011;3606;52.930;8.644;2024-03-06T09:34:25;14.90;;;9.17;;
7128;SDS011;3606;52.930;8.644;2024-03-06T09:36:50;17.27;;;8.97;;
7128;SDS011;3606;52.930;8.644;2024-03-06T09:39:17;15.23;;;8.73;;
7128;SDS011;3606;52.930;8.644;2024-03-06T09:41:50;15.33;;;8.43;;
7128;SDS011;3606;52.930;8.644;2024-03-06T09:44:16;17.83;;;9.37;;
7128;SDS011;3606;52.930;8.644;2024-03-06T09:46:43;15.83;;;9.23;;
7128;SDS011;3606;52.930;8.644;2024-03-06T09:49:19;14.07;;;9.60;;
7128;SDS011;3606;52.930;8.644;2024-03-06T09:51:45;16.43;;;9.53;;
7128;SDS011;3606;52.930;8.644;2024-03-06T09:54:12;13.93;;;9.07;;
7128;SDS011;3606;52.930;8.644;2024-03-06T09:56:42;12.20;;;8.73;;
7128;SDS011;3606;52.930;8.644;2024-03-06T09:59:10;12.40;;;8.97;;
7128;SDS011;3606;52.930;8.644;2024-03-06T10:01:39;14.53;;;9.47;;
7128;SDS011;3606;52.930;8.644;2024-03-06T10:04:26;14.03;;;9.23;;
7128;SDS011;3606;52.930;8.644;2024-03-06T10:06:53;11.90;;;9.10;;
7128;SDS011;3606;52.930;8.644;2024-03-06T10:09:20;12.53;;;9.63;;
7128;SDS011;3606;52.930;8.644;2024-03-06T10:11:46;14.67;;;8.97;;
7128;SDS011;3606;52.930;8.644;2024-03-06T10:14:12;16.00;;;10.37;;
7128;SDS011;3606;52.930;8.644;2024-03-06T10:16:51;12.53;;;9.47;;
7128;SDS011;3606;52.930;8.644;2024-03-06T10:19:18;14.97;;;8.97;;
7128;SDS011;3606;52.930;8.644;2024-03-06T10:21:46;15.17;;;9.37;;
7128;SDS011;3606;52.930;8.644;2024-03-06T10:24:22;13.43;;;9.60;;
7128;SDS011;3606;52.930;8.644;2024-03-06T10:26:49;17.23;;;10.40;;
7128;SDS011;3606;52.930;8.644;2024-03-06T10:29:16;14.30;;;9.37;;
7128;SDS011;3606;52.930;8.644;2024-03-06T10:31:47;15.47;;;10.30;;
7128;SDS011;3606;52.930;8.644;2024-03-06T10:34:28;16.17;;;10.20;;
7128;SDS011;3606;52.930;8.644;2024-03-06T10:39:20;15.23;;;10.23;;
7128;SDS011;3606;52.930;8.644;2024-03-06T10:41:46;13.60;;;9.30;;
7128;SDS011;3606;52.930;8.644;2024-03-06T10:44:17;15.77;;;9.90;;
7128;SDS011;3606;52.930;8.644;2024-03-06T10:47:03;14.47;;;9.60;;
7128;SDS011;3606;52.930;8.644;2024-03-06T10:49:31;13.30;;;9.70;;
7128;SDS011;3606;52.930;8.644;2024-03-06T10:52:03;14.73;;;9.80;;
7128;SDS011;3606;52.930;8.644;2024-03-06T10:54:32;15.80;;;10.17;;
7128;SDS011;3606;52.930;8.644;2024-03-06T10:57:04;16.60;;;10.40;;
7128;SDS011;3606;52.930;8.644;2024-03-06T10:59:29;15.03;;;10.07;;
7128;SDS011;3606;52.930;8.644;2024-03-06T11:01:56;13.43;;;10.30;;
7128;SDS011;3606;52.930;8.644;2024-03-06T11:04:25;18.10;;;10.27;;
7128;SDS011;3606;52.930;8.644;2024-03-06T11:06:55;17.77;;;9.90;;
7128;SDS011;3606;52.930;8.644;2024-03-06T11:09:21;18.10;;;11.07;;
7128;SDS011;3606;52.930;8.644;2024-03-06T11:11:48;16.03;;;10.57;;
7128;SDS011;3606;52.930;8.644;2024-03-06T11:14:14;18.93;;;10.30;;
7128;SDS011;3606;52.930;8.644;2024-03-06T11:28:24;14.40;;;9.90;;
7128;SDS011;3606;52.930;8.644;2024-03-06T11:30:55;16.33;;;11.07;;
7128;SDS011;3606;52.930;8.644;2024-03-06T11:33:27;19.87;;;11.33;;
7128;SDS011;3606;52.930;8.644;2024-03-06T11:39:02;16.33;;;10.93;;
7128;SDS011;3606;52.930;8.644;2024-03-06T11:41:45;16.07;;;10.57;;
7128;SDS011;3606;52.930;8.644;2024-03-06T11:44:14;20.37;;;11.13;;
7128;SDS011;3606;52.930;8.644;2024-03-06T11:49:22;19.47;;;11.37;;
7128;SDS011;3606;52.930;8.644;2024-03-06T11:51:54;19.13;;;11.00;;
7128;SDS011;3606;52.930;8.644;2024-03-06T11:54:22;17.90;;;10.80;;
7128;SDS011;3606;52.930;8.644;2024-03-06T11:56:50;18.33;;;11.13;;
7128;SDS011;3606;52.930;8.644;2024-03-06T11:59:28;15.40;;;10.80;;
7128;SDS011;3606;52.930;8.644;2024-03-06T12:01:55;17.77;;;11.17;;
7128;SDS011;3606;52.930;8.644;2024-03-06T12:04:21;18.67;;;11.47;;
7128;SDS011;3606;52.930;8.644;2024-03-06T12:06:47;15.73;;;11.87;;
7128;SDS011;3606;52.930;8.644;2024-03-06T12:09:14;16.20;;;11.33;;
7128;SDS011;3606;52.930;8.644;2024-03-06T12:11:40;17.63;;;12.00;;
7128;SDS011;3606;52.930;8.644;2024-03-06T12:14:16;18.13;;;11.97;;
7128;SDS011;3606;52.930;8.644;2024-03-06T12:16:43;17.97;;;12.07;;
7128;SDS011;3606;52.930;8.644;2024-03-06T12:19:19;19.50;;;12.53;;
7128;SDS011;3606;52.930;8.644;2024-03-06T12:21:46;18.60;;;12.53;;
7128;SDS011;3606;52.930;8.644;2024-03-06T12:24:15;19.70;;;12.23;;
7128;SDS011;3606;52.930;8.644;2024-03-06T12:26:43;23.13;;;13.97;;
7128;SDS011;3606;52.930;8.644;2024-03-06T12:29:10;20.63;;;13.37;;
7128;SDS011;3606;52.930;8.644;2024-03-06T12:31:41;23.30;;;14.40;;
7128;SDS011;3606;52.930;8.644;2024-03-06T12:34:07;23.77;;;12.07;;
7128;SDS011;3606;52.930;8.644;2024-03-06T12:36:34;18.53;;;11.87;;
7128;SDS011;3606;52.930;8.644;2024-03-06T12:39:01;19.43;;;11.50;;
7128;SDS011;3606;52.930;8.644;2024-03-06T12:41:28;16.93;;;11.80;;
7128;SDS011;3606;52.930;8.644;2024-03-06T12:43:55;17.93;;;12.17;;
7128;SDS011;3606;52.930;8.644;2024-03-06T12:46:22;18.57;;;12.37;;
7128;SDS011;3606;52.930;8.644;2024-03-06T12:48:48;18.47;;;11.87;;
7128;SDS011;3606;52.930;8.644;2024-03-06T12:51:15;18.80;;;12.30;;
7128;SDS011;3606;52.930;8.644;2024-03-06T12:53:40;21.90;;;12.67;;
7128;SDS011;3606;52.930;8.644;2024-03-06T12:56:06;18.40;;;11.73;;
7128;SDS011;3606;52.930;8.644;2024-03-06T12:58:32;21.30;;;11.07;;
7128;SDS011;3606;52.930;8.644;2024-03-06T13:01:00;17.93;;;11.90;;
7128;SDS011;3606;52.930;8.644;2024-03-06T13:03:26;21.30;;;10.83;;
7128;SDS011;3606;52.930;8.644;2024-03-06T13:05:52;24.93;;;11.87;;
7128;SDS011;3606;52.930;8.644;2024-03-06T13:08:18;16.90;;;11.33;;
7128;SDS011;3606;52.930;8.644;2024-03-06T13:10:44;17.97;;;12.00;;
7128;SDS011;3606;52.930;8.644;2024-03-06T13:13:10;21.40;;;12.33;;
7128;SDS011;3606;52.930;8.644;2024-03-06T13:15:35;18.60;;;12.00;;
7128;SDS011;3606;52.930;8.644;2024-03-06T13:18:04;20.73;;;12.03;;
7128;SDS011;3606;52.930;8.644;2024-03-06T13:20:30;23.17;;;13.10;;
7128;SDS011;3606;52.930;8.644;2024-03-06T13:22:57;19.13;;;12.67;;
7128;SDS011;3606;52.930;8.644;2024-03-06T13:25:22;19.43;;;11.57;;
7128;SDS011;3606;52.930;8.644;2024-03-06T13:27:48;20.40;;;12.10;;
7128;SDS011;3606;52.930;8.644;2024-03-06T13:30:14;21.97;;;13.37;;
7128;SDS011;3606;52.930;8.644;2024-03-06T13:32:40;21.17;;;12.27;;
7128;SDS011;3606;52.930;8.644;2024-03-06T13:35:07;17.10;;;12.07;;
7128;SDS011;3606;52.930;8.644;2024-03-06T13:37:37;18.77;;;12.27;;
7128;SDS011;3606;52.930;8.644;2024-03-06T13:40:03;15.80;;;11.20;;
7128;SDS011;3606;52.930;8.644;2024-03-06T13:42:32;17.50;;;11.53;;
7128;SDS011;3606;52.930;8.644;2024-03-06T13:44:58;21.50;;;12.03;;
7128;SDS011;3606;52.930;8.644;2024-03-06T13:47:23;16.97;;;13.07;;
7128;SDS011;3606;52.930;8.644;2024-03-06T13:49:49;20.47;;;11.97;;
7128;SDS011;3606;52.930;8.644;2024-03-06T13:52:14;20.13;;;12.93;;
7128;SDS011;3606;52.930;8.644;2024-03-06T13:54:44;18.73;;;12.13;;
7128;SDS011;3606;52.930;8.644;2024-03-06T13:57:11;21.43;;;12.43;;
7128;SDS011;3606;52.930;8.644;2024-03-06T13:59:37;15.03;;;11.47;;
7128;SDS011;3606;52.930;8.644;2024-03-06T14:02:03;19.47;;;12.23;;
7128;SDS011;3606;52.930;8.644;2024-03-06T14:04:29;18.70;;;11.80;;
7128;SDS011;3606;52.930;8.644;2024-03-06T14:06:55;19.13;;;10.93;;
7128;SDS011;3606;52.930;8.644;2024-03-06T14:09:22;19.17;;;11.23;;
7128;SDS011;3606;52.930;8.644;2024-03-06T14:11:49;16.17;;;11.43;;
7128;SDS011;3606;52.930;8.644;2024-03-06T14:14:15;17.77;;;11.27;;
7128;SDS011;3606;52.930;8.644;2024-03-06T14:16:41;19.60;;;11.83;;
7128;SDS011;3606;52.930;8.644;2024-03-06T14:19:07;15.50;;;11.03;;
7128;SDS011;3606;52.930;8.644;2024-03-06T14:21:33;16.97;;;11.77;;
7128;SDS011;3606;52.930;8.644;2024-03-06T14:24:00;17.00;;;11.50;;
7128;SDS011;3606;52.930;8.644;2024-03-06T14:26:29;21.33;;;12.80;;
7128;SDS011;3606;52.930;8.644;2024-03-06T14:28:55;18.47;;;11.70;;
7128;SDS011;3606;52.930;8.644;2024-03-06T14:31:21;17.97;;;12.37;;
7128;SDS011;3606;52.930;8.644;2024-03-06T14:33:47;19.27;;;12.03;;
7128;SDS011;3606;52.930;8.644;2024-03-06T14:36:14;21.40;;;12.33;;
7128;SDS011;3606;52.930;8.644;2024-03-06T14:38:39;21.47;;;12.03;;
7128;SDS011;3606;52.930;8.644;2024-03-06T14:41:05;19.43;;;12.50;;
7128;SDS011;3606;52.930;8.644;2024-03-06T14:43:34;21.80;;;12.87;;
7128;SDS011;3606;52.930;8.644;2024-03-06T14:46:01;19.80;;;12.03;;
7128;SDS011;3606;52.930;8.644;2024-03-06T14:48:26;20.23;;;11.63;;
7128;SDS011;3606;52.930;8.644;2024-03-06T14:50:52;18.73;;;11.83;;
7128;SDS011;3606;52.930;8.644;2024-03-06T14:53:17;19.10;;;12.70;;
7128;SDS011;3606;52.930;8.644;2024-03-06T14:55:43;20.33;;;12.70;;
7128;SDS011;3606;52.930;8.644;2024-03-06T14:58:09;19.10;;;12.60;;
7128;SDS011;3606;52.930;8.644;2024-03-06T15:00:35;24.73;;;12.50;;
7128;SDS011;3606;52.930;8.644;2024-03-06T15:03:00;21.40;;;13.77;;
7128;SDS011;3606;52.930;8.644;2024-03-06T15:05:26;20.63;;;13.80;;
7128;SDS011;3606;52.930;8.644;2024-03-06T15:07:52;23.60;;;12.23;;
7128;SDS011;3606;52.930;8.644;2024-03-06T15:10:18;24.13;;;13.47;;
7128;SDS011;3606;52.930;8.644;2024-03-06T15:12:45;21.43;;;12.57;;
7128;SDS011;3606;52.930;8.644;2024-03-06T15:15:11;21.37;;;13.40;;